sensor_id;sensor_type;location;lat;lon;timestamp;temperature;humidity
17053;DHT22;8643;48.824;11.422;2022-09-09T00:00:44;12.30;99.90
17053;DHT22;8643;48.824;11.422;2022-09-09T00:03:21;12.30;99.90
17053;DHT22;8643;48.824;11.422;2022-09-09T00:06:01;13.80;99.90
17053;DHT22;8643;48.824;11.422;2022-09-09T00:13:59;12.10;99.90
17053;DHT22;8643;48.824;11.422;2022-09-09T00:16:35;11.90;99.90
17053;DHT22;8643;48.824;11.422;2022-09-09T00:19:18;12.10;99.90
17053;DHT22;8643;48.824;11.422;2022-09-09T00:22:00;12.00;99.90
17053;DHT22;8643;48.824;11.422;2022-09-09T00:27:19;12.00;99.90
17053;DHT22;8643;48.824;11.422;2022-09-09T00:30:00;12.00;99.90
17053;DHT22;8643;48.824;11.422;2022-09-09T00:32:41;11.90;99.90
17053;DHT22;8643;48.824;11.422;2022-09-09T00:35:16;11.90;99.90
17053;DHT22;8643;48.824;11.422;2022-09-09T00:37:53;11.90;99.90
17053;DHT22;8643;48.824;11.422;2022-09-09T00:40:32;11.90;99.90
17053;DHT22;8643;48.824;11.422;2022-09-09T00:43:24;12.00;99.90
17053;DHT22;8643;48.824;11.422;2022-09-09T00:49:15;12.00;99.90
17053;DHT22;8643;48.824;11.422;2022-09-09T00:52:02;12.00;99.90
17053;DHT22;8643;48.824;11.422;2022-09-09T00:54:50;12.10;99.90
17053;DHT22;8643;48.824;11.422;2022-09-09T00:57:27;12.00;99.90
17053;DHT22;8643;48.824;11.422;2022-09-09T01:00:18;12.00;99.90
17053;DHT22;8643;48.824;11.422;2022-09-09T01:03:11;12.10;99.90
17053;DHT22;8643;48.824;11.422;2022-09-09T01:05:59;12.20;99.90
17053;DHT22;8643;48.824;11.422;2022-09-09T01:08:59;12.20;99.90
17053;DHT22;8643;48.824;11.422;2022-09-09T01:11:44;12.20;99.90
17053;DHT22;8643;48.824;11.422;2022-09-09T01:14:30;12.20;99.90
17053;DHT22;8643;48.824;11.422;2022-09-09T01:17:13;12.20;99.90
17053;DHT22;8643;48.824;11.422;2022-09-09T01:20:04;12.20;99.90
17053;DHT22;8643;48.824;11.422;2022-09-09T01:22:57;12.10;99.90
17053;DHT22;8643;48.824;11.422;2022-09-09T01:26:15;12.20;99.90
17053;DHT22;8643;48.824;11.422;2022-09-09T01:28:49;12.20;99.90
17053;DHT22;8643;48.824;11.422;2022-09-09T01:31:28;12.30;99.90
17053;DHT22;8643;48.824;11.422;2022-09-09T01:33:59;12.30;99.90
17053;DHT22;8643;48.824;11.422;2022-09-09T01:36:34;12.30;99.90
17053;DHT22;8643;48.824;11.422;2022-09-09T01:39:11;12.40;99.90
17053;DHT22;8643;48.824;11.422;2022-09-09T01:41:43;12.40;99.90
17053;DHT22;8643;48.824;11.422;2022-09-09T01:44:14;12.40;99.90
17053;DHT22;8643;48.824;11.422;2022-09-09T01:49:18;12.40;99.90
17053;DHT22;8643;48.824;11.422;2022-09-09T01:54:26;12.30;99.90
17053;DHT22;8643;48.824;11.422;2022-09-09T01:57:08;12.20;99.90
17053;DHT22;8643;48.824;11.422;2022-09-09T01:59:55;12.00;99.90
17053;DHT22;8643;48.824;11.422;2022-09-09T02:02:46;12.00;99.90
17053;DHT22;8643;48.824;11.422;2022-09-09T02:08:15;11.90;99.90
17053;DHT22;8643;48.824;11.422;2022-09-09T02:10:58;11.90;99.90
17053;DHT22;8643;48.824;11.422;2022-09-09T02:13:44;11.90;99.90
17053;DHT22;8643;48.824;11.422;2022-09-09T02:16:20;11.80;99.90
17053;DHT22;8643;48.824;11.422;2022-09-09T02:18:57;11.80;99.90
17053;DHT22;8643;48.824;11.422;2022-09-09T02:21:44;11.80;99.90
17053;DHT22;8643;48.824;11.422;2022-09-09T02:24:16;11.90;99.90
17053;DHT22;8643;48.824;11.422;2022-09-09T02:26:54;11.80;99.90
17053;DHT22;8643;48.824;11.422;2022-09-09T02:29:29;11.80;99.90
17053;DHT22;8643;48.824;11.422;2022-09-09T02:32:03;11.80;99.90
17053;DHT22;8643;48.824;11.422;2022-09-09T02:34:40;11.70;99.90
17053;DHT22;8643;48.824;11.422;2022-09-09T02:39:46;11.70;99.90
17053;DHT22;8643;48.824;11.422;2022-09-09T02:44:51;11.80;99.90
17053;DHT22;8643;48.824;11.422;2022-09-09T02:47:26;11.60;99.90
17053;DHT22;8643;48.824;11.422;2022-09-09T02:50:12;11.70;99.90
17053;DHT22;8643;48.824;11.422;2022-09-09T02:55:32;11.60;99.90
17053;DHT22;8643;48.824;11.422;2022-09-09T02:58:10;12.20;99.90
17053;DHT22;8643;48.824;11.422;2022-09-09T03:00:52;12.10;99.90
17053;DHT22;8643;48.824;11.422;2022-09-09T03:03:21;11.80;99.90
17053;DHT22;8643;48.824;11.422;2022-09-09T03:08:20;11.80;99.90
17053;DHT22;8643;48.824;11.422;2022-09-09T03:10:49;11.70;99.90
17053;DHT22;8643;48.824;11.422;2022-09-09T03:15:48;11.60;99.90
17053;DHT22;8643;48.824;11.422;2022-09-09T03:18:21;11.60;99.90
17053;DHT22;8643;48.824;11.422;2022-09-09T03:20:52;11.60;99.90
17053;DHT22;8643;48.824;11.422;2022-09-09T03:23:22;11.50;99.90
17053;DHT22;8643;48.824;11.422;2022-09-09T03:25:51;11.50;99.90
17053;DHT22;8643;48.824;11.422;2022-09-09T03:28:30;11.50;99.90
17053;DHT22;8643;48.824;11.422;2022-09-09T03:31:01;11.50;99.90
17053;DHT22;8643;48.824;11.422;2022-09-09T03:33:36;11.50;99.90
17053;DHT22;8643;48.824;11.422;2022-09-09T03:36:06;11.50;99.90
17053;DHT22;8643;48.824;11.422;2022-09-09T03:38:37;10.10;99.90
17053;DHT22;8643;48.824;11.422;2022-09-09T03:41:07;11.60;99.90
17053;DHT22;8643;48.824;11.422;2022-09-09T03:43:36;11.60;99.90
17053;DHT22;8643;48.824;11.422;2022-09-09T03:46:05;11.60;99.90
17053;DHT22;8643;48.824;11.422;2022-09-09T03:48:33;11.60;99.90
17053;DHT22;8643;48.824;11.422;2022-09-09T03:51:05;11.70;99.90
17053;DHT22;8643;48.824;11.422;2022-09-09T03:53:34;11.70;99.90
17053;DHT22;8643;48.824;11.422;2022-09-09T03:56:04;11.70;99.90
17053;DHT22;8643;48.824;11.422;2022-09-09T03:58:34;11.60;99.90
17053;DHT22;8643;48.824;11.422;2022-09-09T04:03:41;11.70;99.90
17053;DHT22;8643;48.824;11.422;2022-09-09T04:06:12;11.80;99.90
17053;DHT22;8643;48.824;11.422;2022-09-09T04:08:45;11.10;99.90
17053;DHT22;8643;48.824;11.422;2022-09-09T04:11:16;11.80;99.90
17053;DHT22;8643;48.824;11.422;2022-09-09T04:13:46;11.90;99.90
17053;DHT22;8643;48.824;11.422;2022-09-09T04:18:43;12.00;99.90
17053;DHT22;8643;48.824;11.422;2022-09-09T04:21:15;11.90;99.90
17053;DHT22;8643;48.824;11.422;2022-09-09T04:23:45;11.90;99.90
17053;DHT22;8643;48.824;11.422;2022-09-09T04:28:44;12.00;99.90
17053;DHT22;8643;48.824;11.422;2022-09-09T04:33:53;12.00;99.90
17053;DHT22;8643;48.824;11.422;2022-09-09T04:36:23;12.00;99.90
17053;DHT22;8643;48.824;11.422;2022-09-09T04:38:56;12.00;99.90
17053;DHT22;8643;48.824;11.422;2022-09-09T04:41:25;12.00;99.90
17053;DHT22;8643;48.824;11.422;2022-09-09T04:43:54;11.90;99.90
17053;DHT22;8643;48.824;11.422;2022-09-09T04:46:23;12.00;99.90
17053;DHT22;8643;48.824;11.422;2022-09-09T04:48:52;12.00;99.90
17053;DHT22;8643;48.824;11.422;2022-09-09T04:51:26;12.00;99.90
17053;DHT22;8643;48.824;11.422;2022-09-09T04:56:24;12.10;99.90
17053;DHT22;8643;48.824;11.422;2022-09-09T04:58:57;12.10;99.90
17053;DHT22;8643;48.824;11.422;2022-09-09T05:01:46;12.10;99.90
17053;DHT22;8643;48.824;11.422;2022-09-09T05:04:14;12.10;99.90
17053;DHT22;8643;48.824;11.422;2022-09-09T05:06:44;12.10;99.90
17053;DHT22;8643;48.824;11.422;2022-09-09T05:09:13;12.20;99.90
17053;DHT22;8643;48.824;11.422;2022-09-09T05:11:43;12.10;99.90
17053;DHT22;8643;48.824;11.422;2022-09-09T05:14:26;12.20;99.90
17053;DHT22;8643;48.824;11.422;2022-09-09T05:16:54;12.20;99.90
17053;DHT22;8643;48.824;11.422;2022-09-09T05:19:23;12.30;99.90
17053;DHT22;8643;48.824;11.422;2022-09-09T05:21:54;12.30;99.90
17053;DHT22;8643;48.824;11.422;2022-09-09T05:27:01;12.50;99.90
17053;DHT22;8643;48.824;11.422;2022-09-09T05:32:03;12.70;99.90
17053;DHT22;8643;48.824;11.422;2022-09-09T05:34:34;12.70;99.90
17053;DHT22;8643;48.824;11.422;2022-09-09T05:37:06;12.80;99.90
17053;DHT22;8643;48.824;11.422;2022-09-09T05:39:36;12.90;99.90
17053;DHT22;8643;48.824;11.422;2022-09-09T05:42:05;12.90;99.90
17053;DHT22;8643;48.824;11.422;2022-09-09T05:44:33;13.00;99.90
17053;DHT22;8643;48.824;11.422;2022-09-09T05:49:30;13.20;99.90
17053;DHT22;8643;48.824;11.422;2022-09-09T05:54:29;13.20;99.90
17053;DHT22;8643;48.824;11.422;2022-09-09T05:56:59;13.00;99.90
17053;DHT22;8643;48.824;11.422;2022-09-09T05:59:28;13.40;99.90
17053;DHT22;8643;48.824;11.422;2022-09-09T06:04:31;13.80;99.90
17053;DHT22;8643;48.824;11.422;2022-09-09T06:07:01;13.90;99.90
17053;DHT22;8643;48.824;11.422;2022-09-09T06:09:31;14.20;99.90
17053;DHT22;8643;48.824;11.422;2022-09-09T06:11:59;14.30;99.90
17053;DHT22;8643;48.824;11.422;2022-09-09T06:14:30;14.50;99.90
17053;DHT22;8643;48.824;11.422;2022-09-09T06:16:59;14.60;99.90
17053;DHT22;8643;48.824;11.422;2022-09-09T06:21:59;14.90;99.90
17053;DHT22;8643;48.824;11.422;2022-09-09T06:24:31;15.00;99.90
17053;DHT22;8643;48.824;11.422;2022-09-09T06:27:01;14.90;99.90
17053;DHT22;8643;48.824;11.422;2022-09-09T06:29:33;14.90;99.90
17053;DHT22;8643;48.824;11.422;2022-09-09T06:37:00;14.50;99.90
17053;DHT22;8643;48.824;11.422;2022-09-09T06:39:36;14.30;99.90
17053;DHT22;8643;48.824;11.422;2022-09-09T06:47:42;13.90;99.90
17053;DHT22;8643;48.824;11.422;2022-09-09T06:50:11;13.80;99.90
17053;DHT22;8643;48.824;11.422;2022-09-09T06:55:10;13.70;99.90
17053;DHT22;8643;48.824;11.422;2022-09-09T06:57:40;10.80;99.90
17053;DHT22;8643;48.824;11.422;2022-09-09T07:00:14;12.70;99.90
17053;DHT22;8643;48.824;11.422;2022-09-09T07:05:13;13.60;99.90
17053;DHT22;8643;48.824;11.422;2022-09-09T07:10:16;13.60;99.90
17053;DHT22;8643;48.824;11.422;2022-09-09T07:12:45;13.60;99.90
17053;DHT22;8643;48.824;11.422;2022-09-09T07:15:21;13.50;99.90
17053;DHT22;8643;48.824;11.422;2022-09-09T07:17:50;12.60;99.90
17053;DHT22;8643;48.824;11.422;2022-09-09T07:20:20;13.50;99.90
17053;DHT22;8643;48.824;11.422;2022-09-09T07:25:23;13.60;99.90
17053;DHT22;8643;48.824;11.422;2022-09-09T07:27:53;13.70;99.90
17053;DHT22;8643;48.824;11.422;2022-09-09T07:37:54;14.00;99.90
17053;DHT22;8643;48.824;11.422;2022-09-09T07:40:25;14.10;99.90
17053;DHT22;8643;48.824;11.422;2022-09-09T07:45:22;14.30;99.90
17053;DHT22;8643;48.824;11.422;2022-09-09T07:47:50;14.50;99.90
17053;DHT22;8643;48.824;11.422;2022-09-09T07:52:49;14.70;99.90
17053;DHT22;8643;48.824;11.422;2022-09-09T07:55:18;14.70;99.90
17053;DHT22;8643;48.824;11.422;2022-09-09T07:57:47;14.80;99.90
17053;DHT22;8643;48.824;11.422;2022-09-09T08:02:50;14.80;99.90
17053;DHT22;8643;48.824;11.422;2022-09-09T08:05:22;15.00;99.90
17053;DHT22;8643;48.824;11.422;2022-09-09T08:07:50;14.80;99.90
17053;DHT22;8643;48.824;11.422;2022-09-09T08:10:19;15.00;99.90
17053;DHT22;8643;48.824;11.422;2022-09-09T08:12:50;15.00;99.90
17053;DHT22;8643;48.824;11.422;2022-09-09T08:15:39;15.10;99.90
17053;DHT22;8643;48.824;11.422;2022-09-09T08:18:08;15.20;99.90
17053;DHT22;8643;48.824;11.422;2022-09-09T08:20:37;15.10;99.90
17053;DHT22;8643;48.824;11.422;2022-09-09T08:28:06;15.30;99.90
17053;DHT22;8643;48.824;11.422;2022-09-09T08:30:34;15.50;99.90
17053;DHT22;8643;48.824;11.422;2022-09-09T08:33:03;15.70;99.90
17053;DHT22;8643;48.824;11.422;2022-09-09T08:35:31;15.80;99.90
17053;DHT22;8643;48.824;11.422;2022-09-09T08:38:01;15.00;99.90
17053;DHT22;8643;48.824;11.422;2022-09-09T08:40:40;16.70;99.90
17053;DHT22;8643;48.824;11.422;2022-09-09T08:43:18;17.30;99.90
17053;DHT22;8643;48.824;11.422;2022-09-09T08:45:56;17.70;99.90
17053;DHT22;8643;48.824;11.422;2022-09-09T08:48:45;17.90;99.90
17053;DHT22;8643;48.824;11.422;2022-09-09T08:51:24;18.00;99.90
17053;DHT22;8643;48.824;11.422;2022-09-09T08:53:58;17.90;99.90
17053;DHT22;8643;48.824;11.422;2022-09-09T08:56:32;17.80;99.90
17053;DHT22;8643;48.824;11.422;2022-09-09T09:01:54;17.10;99.90
17053;DHT22;8643;48.824;11.422;2022-09-09T09:04:45;16.70;99.90
17053;DHT22;8643;48.824;11.422;2022-09-09T09:07:44;16.40;99.90
17053;DHT22;8643;48.824;11.422;2022-09-09T09:13:19;16.10;99.90
17053;DHT22;8643;48.824;11.422;2022-09-09T09:16:02;16.20;99.90
17053;DHT22;8643;48.824;11.422;2022-09-09T09:18:40;16.20;99.90
17053;DHT22;8643;48.824;11.422;2022-09-09T09:21:12;16.30;99.90
17053;DHT22;8643;48.824;11.422;2022-09-09T09:23:53;16.50;99.90
17053;DHT22;8643;48.824;11.422;2022-09-09T09:29:03;17.20;99.90
17053;DHT22;8643;48.824;11.422;2022-09-09T09:34:15;18.50;99.90
17053;DHT22;8643;48.824;11.422;2022-09-09T09:36:53;19.20;99.90
17053;DHT22;8643;48.824;11.422;2022-09-09T09:39:26;20.10;99.90
17053;DHT22;8643;48.824;11.422;2022-09-09T09:42:17;20.80;99.90
17053;DHT22;8643;48.824;11.422;2022-09-09T09:44:51;21.20;99.90
17053;DHT22;8643;48.824;11.422;2022-09-09T09:47:23;21.60;99.90
17053;DHT22;8643;48.824;11.422;2022-09-09T09:50:02;21.60;99.90
17053;DHT22;8643;48.824;11.422;2022-09-09T09:52:36;21.30;99.90
17053;DHT22;8643;48.824;11.422;2022-09-09T09:55:13;21.70;99.90
17053;DHT22;8643;48.824;11.422;2022-09-09T09:57:45;22.40;99.90
17053;DHT22;8643;48.824;11.422;2022-09-09T10:00:15;23.10;99.90
17053;DHT22;8643;48.824;11.422;2022-09-09T10:02:56;23.50;99.90
17053;DHT22;8643;48.824;11.422;2022-09-09T10:05:29;23.20;99.90
17053;DHT22;8643;48.824;11.422;2022-09-09T10:08:10;22.60;99.90
17053;DHT22;8643;48.824;11.422;2022-09-09T10:10:52;22.80;99.90
17053;DHT22;8643;48.824;11.422;2022-09-09T10:13:36;23.00;99.90
17053;DHT22;8643;48.824;11.422;2022-09-09T10:19:05;22.90;99.90
17053;DHT22;8643;48.824;11.422;2022-09-09T10:22:13;22.90;99.90
17053;DHT22;8643;48.824;11.422;2022-09-09T10:25:10;23.10;99.90
17053;DHT22;8643;48.824;11.422;2022-09-09T10:28:10;23.00;99.90
17053;DHT22;8643;48.824;11.422;2022-09-09T10:30:58;23.10;99.90
17053;DHT22;8643;48.824;11.422;2022-09-09T10:33:41;23.50;99.90
17053;DHT22;8643;48.824;11.422;2022-09-09T10:36:21;24.20;99.90
17053;DHT22;8643;48.824;11.422;2022-09-09T10:38:56;23.80;99.90
17053;DHT22;8643;48.824;11.422;2022-09-09T10:41:40;23.50;99.70
17053;DHT22;8643;48.824;11.422;2022-09-09T10:44:38;22.70;99.90
17053;DHT22;8643;48.824;11.422;2022-09-09T10:47:37;22.10;99.90
17053;DHT22;8643;48.824;11.422;2022-09-09T10:50:32;21.80;99.90
17053;DHT22;8643;48.824;11.422;2022-09-09T10:53:46;21.60;99.90
17053;DHT22;8643;48.824;11.422;2022-09-09T10:56:23;21.50;99.90
17053;DHT22;8643;48.824;11.422;2022-09-09T11:04:12;22.90;99.90
17053;DHT22;8643;48.824;11.422;2022-09-09T11:06:49;22.60;99.90
17053;DHT22;8643;48.824;11.422;2022-09-09T11:09:27;23.00;99.90
17053;DHT22;8643;48.824;11.422;2022-09-09T11:12:00;23.50;99.90
17053;DHT22;8643;48.824;11.422;2022-09-09T11:14:34;24.00;99.90
17053;DHT22;8643;48.824;11.422;2022-09-09T11:17:11;24.90;99.90
17053;DHT22;8643;48.824;11.422;2022-09-09T11:19:44;25.40;95.70
17053;DHT22;8643;48.824;11.422;2022-09-09T11:22:21;25.40;94.90
17053;DHT22;8643;48.824;11.422;2022-09-09T11:24:58;24.50;96.60
17053;DHT22;8643;48.824;11.422;2022-09-09T11:27:37;24.00;99.90
17053;DHT22;8643;48.824;11.422;2022-09-09T11:30:19;23.90;99.90
17053;DHT22;8643;48.824;11.422;2022-09-09T11:33:31;23.90;99.90
17053;DHT22;8643;48.824;11.422;2022-09-09T11:36:28;25.50;95.10
17053;DHT22;8643;48.824;11.422;2022-09-09T11:39:22;26.00;97.70
17053;DHT22;8643;48.824;11.422;2022-09-09T11:42:16;26.30;94.00
17053;DHT22;8643;48.824;11.422;2022-09-09T11:44:46;25.50;94.20
17053;DHT22;8643;48.824;11.422;2022-09-09T11:47:23;24.70;96.00
17053;DHT22;8643;48.824;11.422;2022-09-09T11:50:11;24.10;96.30
17053;DHT22;8643;48.824;11.422;2022-09-09T11:53:18;24.00;94.90
17053;DHT22;8643;48.824;11.422;2022-09-09T11:56:04;24.50;94.40
17053;DHT22;8643;48.824;11.422;2022-09-09T11:58:40;24.10;93.70
17053;DHT22;8643;48.824;11.422;2022-09-09T12:01:14;23.90;98.20
17053;DHT22;8643;48.824;11.422;2022-09-09T12:04:32;24.40;95.50
17053;DHT22;8643;48.824;11.422;2022-09-09T12:07:26;25.00;94.20
17053;DHT22;8643;48.824;11.422;2022-09-09T12:10:05;25.20;92.40
17053;DHT22;8643;48.824;11.422;2022-09-09T12:12:48;24.90;95.70
17053;DHT22;8643;48.824;11.422;2022-09-09T12:15:27;24.00;96.00
17053;DHT22;8643;48.824;11.422;2022-09-09T12:17:57;23.40;98.30
17053;DHT22;8643;48.824;11.422;2022-09-09T12:20:34;22.70;99.00
17053;DHT22;8643;48.824;11.422;2022-09-09T12:23:18;22.60;99.90
17053;DHT22;8643;48.824;11.422;2022-09-09T12:26:07;22.40;99.90
17053;DHT22;8643;48.824;11.422;2022-09-09T12:29:02;23.30;99.90
17053;DHT22;8643;48.824;11.422;2022-09-09T12:31:45;23.60;99.30
17053;DHT22;8643;48.824;11.422;2022-09-09T12:34:31;23.30;99.30
17053;DHT22;8643;48.824;11.422;2022-09-09T12:37:13;23.30;99.40
17053;DHT22;8643;48.824;11.422;2022-09-09T12:39:50;23.90;96.90
17053;DHT22;8643;48.824;11.422;2022-09-09T12:42:23;24.00;97.50
17053;DHT22;8643;48.824;11.422;2022-09-09T12:44:54;23.70;97.60
17053;DHT22;8643;48.824;11.422;2022-09-09T12:47:33;23.10;98.00
17053;DHT22;8643;48.824;11.422;2022-09-09T12:50:16;23.20;99.90
17053;DHT22;8643;48.824;11.422;2022-09-09T12:52:48;23.10;98.00
17053;DHT22;8643;48.824;11.422;2022-09-09T12:55:19;23.10;99.90
17053;DHT22;8643;48.824;11.422;2022-09-09T12:57:52;23.30;99.90
17053;DHT22;8643;48.824;11.422;2022-09-09T13:00:22;23.90;99.90
17053;DHT22;8643;48.824;11.422;2022-09-09T13:02:55;24.10;99.40
17053;DHT22;8643;48.824;11.422;2022-09-09T13:05:27;24.30;99.80
17053;DHT22;8643;48.824;11.422;2022-09-09T13:08:01;24.50;97.30
17053;DHT22;8643;48.824;11.422;2022-09-09T13:10:33;24.30;98.20
17053;DHT22;8643;48.824;11.422;2022-09-09T13:13:22;24.30;97.00
17053;DHT22;8643;48.824;11.422;2022-09-09T13:15:54;23.80;97.90
17053;DHT22;8643;48.824;11.422;2022-09-09T13:18:28;24.30;96.50
17053;DHT22;8643;48.824;11.422;2022-09-09T13:21:00;24.50;95.70
17053;DHT22;8643;48.824;11.422;2022-09-09T13:23:32;24.60;95.60
17053;DHT22;8643;48.824;11.422;2022-09-09T13:26:04;24.60;97.60
17053;DHT22;8643;48.824;11.422;2022-09-09T13:31:05;24.50;94.50
17053;DHT22;8643;48.824;11.422;2022-09-09T13:33:48;24.60;96.10
17053;DHT22;8643;48.824;11.422;2022-09-09T13:36:28;24.70;95.10
17053;DHT22;8643;48.824;11.422;2022-09-09T13:38:59;24.50;92.60
17053;DHT22;8643;48.824;11.422;2022-09-09T13:41:32;24.90;95.30
17053;DHT22;8643;48.824;11.422;2022-09-09T13:46:35;23.80;95.90
17053;DHT22;8643;48.824;11.422;2022-09-09T13:49:21;23.50;97.10
17053;DHT22;8643;48.824;11.422;2022-09-09T13:52:01;23.60;97.20
17053;DHT22;8643;48.824;11.422;2022-09-09T13:54:31;24.40;94.80
17053;DHT22;8643;48.824;11.422;2022-09-09T13:57:00;24.90;93.40
17053;DHT22;8643;48.824;11.422;2022-09-09T13:59:29;25.30;91.60
17053;DHT22;8643;48.824;11.422;2022-09-09T14:02:18;24.90;92.40
17053;DHT22;8643;48.824;11.422;2022-09-09T14:04:49;24.70;91.90
17053;DHT22;8643;48.824;11.422;2022-09-09T14:07:22;24.20;93.40
17053;DHT22;8643;48.824;11.422;2022-09-09T14:09:50;23.90;91.60
17053;DHT22;8643;48.824;11.422;2022-09-09T14:12:19;23.60;91.30
17053;DHT22;8643;48.824;11.422;2022-09-09T14:14:47;23.00;93.50
17053;DHT22;8643;48.824;11.422;2022-09-09T14:17:16;22.50;95.00
17053;DHT22;8643;48.824;11.422;2022-09-09T14:19:44;22.20;96.30
17053;DHT22;8643;48.824;11.422;2022-09-09T14:22:14;21.90;94.60
17053;DHT22;8643;48.824;11.422;2022-09-09T14:24:42;21.50;98.50
17053;DHT22;8643;48.824;11.422;2022-09-09T14:27:10;21.50;99.60
17053;DHT22;8643;48.824;11.422;2022-09-09T14:29:39;21.20;99.90
17053;DHT22;8643;48.824;11.422;2022-09-09T14:34:38;20.80;99.90
17053;DHT22;8643;48.824;11.422;2022-09-09T14:37:07;20.90;99.90
17053;DHT22;8643;48.824;11.422;2022-09-09T14:39:37;20.80;99.90
17053;DHT22;8643;48.824;11.422;2022-09-09T14:42:05;20.80;99.90
17053;DHT22;8643;48.824;11.422;2022-09-09T14:44:35;20.60;99.90
17053;DHT22;8643;48.824;11.422;2022-09-09T14:47:05;20.50;99.90
17053;DHT22;8643;48.824;11.422;2022-09-09T14:49:34;20.40;99.90
17053;DHT22;8643;48.824;11.422;2022-09-09T14:52:06;20.60;99.90
17053;DHT22;8643;48.824;11.422;2022-09-09T14:54:37;20.60;99.90
17053;DHT22;8643;48.824;11.422;2022-09-09T14:57:05;20.50;99.90
17053;DHT22;8643;48.824;11.422;2022-09-09T14:59:34;20.50;99.90
17053;DHT22;8643;48.824;11.422;2022-09-09T15:02:02;20.40;99.90
17053;DHT22;8643;48.824;11.422;2022-09-09T15:04:31;20.30;99.90
17053;DHT22;8643;48.824;11.422;2022-09-09T15:06:59;20.40;99.90
17053;DHT22;8643;48.824;11.422;2022-09-09T15:11:58;20.70;99.90
17053;DHT22;8643;48.824;11.422;2022-09-09T15:14:27;20.80;99.90
17053;DHT22;8643;48.824;11.422;2022-09-09T15:21:53;20.30;99.90
17053;DHT22;8643;48.824;11.422;2022-09-09T15:24:22;20.40;99.90
17053;DHT22;8643;48.824;11.422;2022-09-09T15:26:52;20.40;99.90
17053;DHT22;8643;48.824;11.422;2022-09-09T15:29:21;20.80;99.90
17053;DHT22;8643;48.824;11.422;2022-09-09T15:31:50;21.10;99.90
17053;DHT22;8643;48.824;11.422;2022-09-09T15:34:18;21.30;99.90
17053;DHT22;8643;48.824;11.422;2022-09-09T15:36:47;21.80;99.90
17053;DHT22;8643;48.824;11.422;2022-09-09T15:39:17;21.50;99.90
17053;DHT22;8643;48.824;11.422;2022-09-09T15:41:47;21.90;99.90
17053;DHT22;8643;48.824;11.422;2022-09-09T15:44:16;21.70;99.90
17053;DHT22;8643;48.824;11.422;2022-09-09T15:46:49;21.70;99.90
17053;DHT22;8643;48.824;11.422;2022-09-09T15:49:21;21.80;99.00
17053;DHT22;8643;48.824;11.422;2022-09-09T15:51:52;21.90;99.60
17053;DHT22;8643;48.824;11.422;2022-09-09T15:54:23;22.00;97.30
17053;DHT22;8643;48.824;11.422;2022-09-09T15:56:55;21.90;96.30
17053;DHT22;8643;48.824;11.422;2022-09-09T15:59:26;21.80;95.70
17053;DHT22;8643;48.824;11.422;2022-09-09T16:01:58;21.60;96.10
17053;DHT22;8643;48.824;11.422;2022-09-09T16:04:27;21.50;97.70
17053;DHT22;8643;48.824;11.422;2022-09-09T16:06:58;21.40;96.70
17053;DHT22;8643;48.824;11.422;2022-09-09T16:09:28;21.00;98.40
17053;DHT22;8643;48.824;11.422;2022-09-09T16:14:28;20.50;99.90
17053;DHT22;8643;48.824;11.422;2022-09-09T16:17:02;20.20;99.90
17053;DHT22;8643;48.824;11.422;2022-09-09T16:22:01;20.00;99.90
17053;DHT22;8643;48.824;11.422;2022-09-09T16:24:30;20.40;99.90
17053;DHT22;8643;48.824;11.422;2022-09-09T16:26:59;19.80;99.90
17053;DHT22;8643;48.824;11.422;2022-09-09T16:29:27;19.70;99.90
17053;DHT22;8643;48.824;11.422;2022-09-09T16:31:55;19.60;99.90
17053;DHT22;8643;48.824;11.422;2022-09-09T16:34:31;19.60;99.90
17053;DHT22;8643;48.824;11.422;2022-09-09T16:39:29;19.50;99.90
17053;DHT22;8643;48.824;11.422;2022-09-09T16:41:58;19.40;99.90
17053;DHT22;8643;48.824;11.422;2022-09-09T16:44:26;19.40;99.90
17053;DHT22;8643;48.824;11.422;2022-09-09T16:46:54;19.30;99.90
17053;DHT22;8643;48.824;11.422;2022-09-09T16:49:27;19.20;99.90
17053;DHT22;8643;48.824;11.422;2022-09-09T16:51:59;19.10;99.90
17053;DHT22;8643;48.824;11.422;2022-09-09T16:56:56;18.60;99.90
17053;DHT22;8643;48.824;11.422;2022-09-09T16:59:25;18.30;99.90
17053;DHT22;8643;48.824;11.422;2022-09-09T17:01:54;18.00;99.90
17053;DHT22;8643;48.824;11.422;2022-09-09T17:04:27;17.40;99.90
17053;DHT22;8643;48.824;11.422;2022-09-09T17:06:58;17.00;99.90
17053;DHT22;8643;48.824;11.422;2022-09-09T17:11:58;16.20;99.90
17053;DHT22;8643;48.824;11.422;2022-09-09T17:14:26;15.80;99.90
17053;DHT22;8643;48.824;11.422;2022-09-09T17:19:47;15.20;99.90
17053;DHT22;8643;48.824;11.422;2022-09-09T17:22:18;15.00;99.90
17053;DHT22;8643;48.824;11.422;2022-09-09T17:24:47;15.30;99.90
17053;DHT22;8643;48.824;11.422;2022-09-09T17:27:15;13.60;99.90
17053;DHT22;8643;48.824;11.422;2022-09-09T17:32:13;14.60;99.90
17053;DHT22;8643;48.824;11.422;2022-09-09T17:34:42;14.40;99.90
17053;DHT22;8643;48.824;11.422;2022-09-09T17:37:10;14.70;99.90
17053;DHT22;8643;48.824;11.422;2022-09-09T17:39:40;14.70;99.90
17053;DHT22;8643;48.824;11.422;2022-09-09T17:42:08;14.80;99.90
17053;DHT22;8643;48.824;11.422;2022-09-09T17:44:37;14.60;99.90
17053;DHT22;8643;48.824;11.422;2022-09-09T17:47:14;14.60;99.90
17053;DHT22;8643;48.824;11.422;2022-09-09T17:52:17;14.50;99.90
17053;DHT22;8643;48.824;11.422;2022-09-09T17:54:47;15.30;99.90
17053;DHT22;8643;48.824;11.422;2022-09-09T17:57:17;14.50;99.90
17053;DHT22;8643;48.824;11.422;2022-09-09T17:59:46;14.40;99.90
17053;DHT22;8643;48.824;11.422;2022-09-09T18:02:14;14.40;99.90
17053;DHT22;8643;48.824;11.422;2022-09-09T18:07:13;14.40;99.90
17053;DHT22;8643;48.824;11.422;2022-09-09T18:09:41;14.30;99.90
17053;DHT22;8643;48.824;11.422;2022-09-09T18:14:40;14.10;99.90
17053;DHT22;8643;48.824;11.422;2022-09-09T18:17:09;14.10;99.90
17053;DHT22;8643;48.824;11.422;2022-09-09T18:19:37;14.00;99.90
17053;DHT22;8643;48.824;11.422;2022-09-09T18:22:05;13.90;99.90
17053;DHT22;8643;48.824;11.422;2022-09-09T18:24:34;13.90;99.90
17053;DHT22;8643;48.824;11.422;2022-09-09T18:29:34;13.80;99.90
17053;DHT22;8643;48.824;11.422;2022-09-09T18:32:02;13.00;99.90
17053;DHT22;8643;48.824;11.422;2022-09-09T18:34:30;13.70;99.90
17053;DHT22;8643;48.824;11.422;2022-09-09T18:36:59;13.60;99.90
17053;DHT22;8643;48.824;11.422;2022-09-09T18:39:28;13.70;99.90
17053;DHT22;8643;48.824;11.422;2022-09-09T18:41:58;13.60;99.90
17053;DHT22;8643;48.824;11.422;2022-09-09T18:44:29;13.70;99.90
17053;DHT22;8643;48.824;11.422;2022-09-09T18:47:00;13.60;99.90
17053;DHT22;8643;48.824;11.422;2022-09-09T18:49:30;13.60;99.90
17053;DHT22;8643;48.824;11.422;2022-09-09T18:51:59;13.50;99.90
17053;DHT22;8643;48.824;11.422;2022-09-09T18:56:59;13.50;99.90
17053;DHT22;8643;48.824;11.422;2022-09-09T18:59:28;13.50;99.90
17053;DHT22;8643;48.824;11.422;2022-09-09T19:01:57;13.50;99.90